Time;durP1;ratioP1;P1;durP2;ratioP2;P2;SDS_P1;SDS_P2;PMS_P1;PMS_P2;Temp;Humidity;BMP_temperature;BMP_pressure;BME280_temperature;BME280_humidity;BME280_pressure;Samples;Min_cycle;Max_cycle;Signal;HPM_P1;HPM_P2
2024/03/14 06:54:07;;;;;;;59.53;30.65;;;;;;;5.28;100.00;96548.78;2105712;27;20517;-59
2024/03/14 06:55:09;;;;;;;59.17;29.73;;;;;;;5.20;100.00;96529.09;2102901;28;20199;-60
2024/03/14 07:07:08;;;;;;;17.85;9.90;;;;;;;5.54;100.00;96530.00;2105590;27;20532;-62
2024/03/14 07:12:15;;;;;;;17.73;10.45;;;;;;;5.75;100.00;96545.84;2108574;27;20967;-62
2024/03/14 07:15:56;;;;;;;18.38;9.95;;;;;;;5.87;100.00;96556.72;2106495;27;20575;-62
2024/03/14 07:19:06;;;;;;;19.83;11.68;;;;;;;6.02;100.00;96562.44;2104825;27;20623;-62
2024/03/14 07:20:33;;;;;;;21.77;11.25;;;;;;;6.06;100.00;96561.44;2103761;28;20894;-62
2024/03/14 07:23:48;;;;;;;15.98;9.45;;;;;;;6.36;100.00;96557.13;2109590;27;20561;-62
2024/03/14 07:26:37;;;;;;;18.08;10.80;;;;;;;6.30;100.00;96548.69;2105227;27;20515;-62
2024/03/14 07:29:16;;;;;;;19.98;10.25;;;;;;;6.42;100.00;96552.66;2108054;27;20573;-65
2024/03/14 07:31:53;;;;;;;16.70;10.20;;;;;;;6.58;100.00;96559.09;2072631;28;20565;-64
2024/03/14 07:32:55;;;;;;;19.42;10.73;;;;;;;6.49;100.00;96541.22;2080078;28;20629;-65
2024/03/14 07:35:30;;;;;;;16.58;10.00;;;;;;;6.72;100.00;96550.00;2106578;27;20518;-62
2024/03/14 07:36:36;;;;;;;20.27;10.07;;;;;;;6.90;100.00;96561.59;2096522;28;20199;-62
2024/03/14 07:37:38;;;;;;;15.13;9.27;;;;;;;6.88;100.00;96550.41;2074633;28;20660;-62
2024/03/14 07:38:39;;;;;;;16.83;10.40;;;;;;;6.92;100.00;96552.84;2073318;28;20747;-63
2024/03/14 07:39:41;;;;;;;18.63;10.30;;;;;;;7.17;100.00;96557.25;2070604;28;20205;-62
2024/03/14 07:40:43;;;;;;;14.23;8.40;;;;;;;7.24;100.00;96555.28;2072750;28;20673;-64
2024/03/14 07:41:44;;;;;;;16.10;9.38;;;;;;;7.25;100.00;96557.00;2071341;28;20256;-63
2024/03/14 07:42:46;;;;;;;16.25;8.95;;;;;;;7.40;100.00;96558.25;2076588;28;20244;-64
2024/03/14 07:43:48;;;;;;;14.55;8.80;;;;;;;7.47;100.00;96555.38;2070947;28;20200;-64
2024/03/14 07:45:16;;;;;;;14.57;9.63;;;;;;;7.62;100.00;96551.41;2071761;28;20193;-64
2024/03/14 07:46:22;;;;;;;14.65;8.88;;;;;;;7.78;100.00;96556.94;2070179;28;20239;-64
2024/03/14 07:47:25;;;;;;;17.65;8.18;;;;;;;7.94;100.00;96552.03;2072563;28;20279;-64
2024/03/14 07:48:27;;;;;;;16.30;8.88;;;;;;;8.04;100.00;96549.09;2074265;28;20205;-64
2024/03/14 07:49:28;;;;;;;14.90;8.55;;;;;;;8.10;100.00;96536.75;2074231;28;20209;-64
2024/03/14 07:50:30;;;;;;;14.50;8.18;;;;;;;8.13;100.00;96551.38;2073559;28;20233;-64
2024/03/14 07:51:32;;;;;;;22.80;8.75;;;;;;;8.03;100.00;96545.66;2071628;28;20283;-64
2024/03/14 07:52:33;;;;;;;12.15;7.88;;;;;;;8.20;100.00;96546.81;2072813;28;20652;-64
2024/03/14 07:53:35;;;;;;;10.18;7.03;;;;;;;8.12;99.32;96540.13;2078752;28;20210;-64
2024/03/14 07:54:38;;;;;;;11.98;8.00;;;;;;;8.14;99.97;96545.28;2076706;28;20559;-64
2024/03/14 07:55:39;;;;;;;12.07;7.30;;;;;;;8.35;99.47;96548.84;2078073;28;20760;-64
2024/03/14 07:56:42;;;;;;;13.50;8.10;;;;;;;8.50;97.98;96553.50;2071599;28;20249;-64
2024/03/14 07:57:43;;;;;;;11.50;7.43;;;;;;;8.48;97.39;96542.31;2068746;28;20198;-64
2024/03/14 07:58:46;;;;;;;12.93;7.65;;;;;;;8.54;97.10;96537.78;2067980;28;20194;-64
2024/03/14 07:59:48;;;;;;;13.70;8.10;;;;;;;8.65;97.24;96535.59;2069461;28;20277;-64
2024/03/14 08:00:50;;;;;;;9.95;6.65;;;;;;;8.68;96.50;96543.28;2071966;28;20522;-64
2024/03/14 08:01:52;;;;;;;11.13;7.00;;;;;;;8.58;96.84;96542.81;2071994;28;20225;-64
2024/03/14 08:02:56;;;;;;;11.43;7.72;;;;;;;8.50;97.67;96543.06;2073938;28;20198;-64
2024/03/14 08:04:00;;;;;;;12.20;7.15;;;;;;;8.49;97.37;96548.34;2073111;28;20201;-64
2024/03/14 08:05:06;;;;;;;11.48;7.68;;;;;;;8.55;96.66;96553.31;2073862;28;20685;-64
2024/03/14 08:06:10;;;;;;;11.65;7.47;;;;;;;8.47;96.95;96545.81;2073706;28;20237;-64
2024/03/14 08:07:17;;;;;;;10.38;7.45;;;;;;;8.27;97.03;96543.09;2071916;28;20219;-64
2024/03/14 08:08:19;;;;;;;13.43;8.45;;;;;;;8.32;98.00;96525.53;2070034;28;20256;-64
2024/03/14 08:09:27;;;;;;;12.48;7.38;;;;;;;8.45;97.53;96544.97;2072716;28;20599;-64
2024/03/14 08:10:29;;;;;;;12.38;8.45;;;;;;;8.60;97.05;96547.94;2082290;28;20205;-64
2024/03/14 08:11:31;;;;;;;11.38;7.75;;;;;;;8.79;96.96;96537.69;2079084;28;20281;-64
2024/03/14 08:12:33;;;;;;;12.20;7.88;;;;;;;9.01;96.66;96545.47;2072388;28;20197;-64
2024/03/14 08:13:35;;;;;;;14.25;7.75;;;;;;;9.38;94.98;96546.56;2078476;28;20220;-64
2024/03/14 08:14:37;;;;;;;11.13;7.03;;;;;;;9.43;93.42;96551.59;2076440;28;20206;-64
2024/03/14 08:15:41;;;;;;;12.30;7.30;;;;;;;9.39;92.24;96545.66;2074140;28;20213;-64
2024/03/14 08:16:43;;;;;;;11.02;6.80;;;;;;;9.71;90.85;96546.06;2070015;28;20221;-64
2024/03/14 08:17:45;;;;;;;11.18;7.28;;;;;;;9.99;88.76;96542.25;2070215;28;20888;-66
2024/03/14 08:18:47;;;;;;;11.35;6.95;;;;;;;10.44;87.97;96542.91;2078002;28;20198;-63
2024/03/14 08:19:51;;;;;;;11.35;7.65;;;;;;;10.58;86.84;96542.28;2071295;28;20285;-65
2024/03/14 08:20:55;;;;;;;10.77;6.90;;;;;;;10.64;85.33;96539.41;2070393;28;20197;-64
2024/03/14 08:21:58;;;;;;;17.98;7.43;;;;;;;10.69;85.26;96549.59;2068450;28;20219;-64
2024/03/14 08:23:01;;;;;;;10.02;6.57;;;;;;;10.73;85.71;96545.97;2069799;28;20206;-65
2024/03/14 08:24:09;;;;;;;9.48;6.32;;;;;;;11.21;83.41;96536.69;2069865;28;20207;-65
2024/03/14 08:25:17;;;;;;;9.40;6.20;;;;;;;11.70;82.12;96543.00;2070264;28;20273;-65
2024/03/14 08:26:19;;;;;;;9.52;6.10;;;;;;;11.75;82.02;96549.66;2075342;28;20208;-64
2024/03/14 08:27:20;;;;;;;9.63;6.65;;;;;;;12.27;79.30;96552.34;2077329;28;20243;-65
2024/03/14 08:28:22;;;;;;;9.85;5.90;;;;;;;12.13;78.92;96551.28;2072172;28;20288;-64
2024/03/14 08:29:25;;;;;;;8.00;5.70;;;;;;;11.55;80.53;96542.00;2074099;28;20240;-65
2024/03/14 08:30:28;;;;;;;9.18;6.28;;;;;;;11.57;80.81;96546.22;2071885;28;20550;-65
2024/03/14 08:31:29;;;;;;;9.27;6.18;;;;;;;11.68;80.65;96552.69;2057502;28;20657;-65
2024/03/14 08:32:32;;;;;;;8.75;6.20;;;;;;;11.71;79.70;96552.53;2073792;28;20220;-65
2024/03/14 08:33:37;;;;;;;9.15;5.95;;;;;;;11.27;80.93;96551.22;2074705;28;20201;-65
2024/03/14 08:34:41;;;;;;;8.52;6.00;;;;;;;11.62;80.78;96546.00;2074728;28;20580;-65
2024/03/14 08:35:43;;;;;;;8.27;5.90;;;;;;;11.21;80.72;96552.38;2072175;28;20210;-60
2024/03/14 08:36:45;;;;;;;9.75;5.63;;;;;;;11.33;80.98;96552.69;2072254;28;20225;-60
2024/03/14 08:37:47;;;;;;;8.30;5.60;;;;;;;11.68;81.03;96537.84;2073736;28;20280;-60
2024/03/14 08:38:48;;;;;;;7.45;5.22;;;;;;;11.86;80.24;96550.88;2073350;28;20676;-60
2024/03/14 08:39:50;;;;;;;8.57;5.63;;;;;;;11.17;80.94;96550.81;2070646;28;20202;-61
2024/03/14 08:40:51;;;;;;;7.68;4.82;;;;;;;11.31;81.43;96539.66;2071463;28;20610;-61
2024/03/14 08:41:54;;;;;;;9.20;5.20;;;;;;;11.85;80.29;96546.59;2071683;28;20298;-60
2024/03/14 08:42:55;;;;;;;7.25;5.10;;;;;;;12.04;78.47;96541.31;2071239;28;20566;-60
2024/03/14 08:43:57;;;;;;;7.10;4.85;;;;;;;11.86;78.34;96541.28;2080794;28;20861;-61
2024/03/14 08:45:00;;;;;;;7.95;5.65;;;;;;;12.00;78.48;96537.13;2080606;28;20233;-61
2024/03/14 08:46:02;;;;;;;8.52;5.10;;;;;;;12.03;77.99;96537.81;2070226;28;20194;-63
2024/03/14 08:47:06;;;;;;;8.32;5.20;;;;;;;11.73;78.89;96540.22;2066192;28;20738;-61
2024/03/14 08:48:08;;;;;;;8.20;5.63;;;;;;;11.87;78.22;96547.34;2067393;28;20297;-61
2024/03/14 08:49:14;;;;;;;8.15;4.72;;;;;;;12.36;77.49;96541.38;2066774;28;20625;-65
2024/03/14 08:50:20;;;;;;;8.80;5.85;;;;;;;12.54;77.02;96544.75;2076308;28;20287;-65
2024/03/14 08:51:26;;;;;;;8.10;4.93;;;;;;;12.74;76.30;96541.88;2068723;28;20202;-64
2024/03/14 08:52:28;;;;;;;7.47;5.35;;;;;;;13.23;75.10;96540.94;2064649;28;20195;-64
2024/03/14 08:53:37;;;;;;;6.20;4.15;;;;;;;13.13;73.95;96547.63;2066497;28;20233;-65
2024/03/14 08:54:44;;;;;;;6.35;4.88;;;;;;;12.73;74.70;96542.84;2068850;28;20237;-65
2024/03/14 08:55:55;;;;;;;6.93;4.57;;;;;;;12.87;74.96;96546.47;2067754;28;20245;-65
2024/03/14 08:56:58;;;;;;;8.13;4.43;;;;;;;12.84;75.26;96544.84;2074371;28;20255;-65
2024/03/14 08:58:02;;;;;;;9.75;4.25;;;;;;;12.96;74.57;96547.72;2074353;28;20764;-65
2024/03/14 08:59:04;;;;;;;6.78;4.50;;;;;;;13.11;74.03;96546.88;2067285;28;20193;-65
2024/03/14 09:00:06;;;;;;;8.20;4.78;;;;;;;13.10;73.88;96539.94;2069662;28;20269;-65
2024/03/14 09:01:09;;;;;;;8.93;4.32;;;;;;;13.23;73.89;96547.97;2066788;28;20225;-65
2024/03/14 09:02:11;;;;;;;7.20;3.75;;;;;;;13.43;74.46;96551.25;2060372;28;20230;-65
2024/03/14 09:03:15;;;;;;;7.15;4.50;;;;;;;13.41;73.46;96542.59;2066348;28;20297;-62
2024/03/14 09:04:20;;;;;;;8.63;4.55;;;;;;;13.49;73.59;96535.97;2066128;28;20231;-61
2024/03/14 09:05:21;;;;;;;6.00;4.45;;;;;;;13.33;73.34;96549.13;2069089;28;20225;-61
2024/03/14 09:06:28;;;;;;;6.97;4.40;;;;;;;13.41;73.24;96553.97;2066639;28;20220;-61
2024/03/14 09:07:30;;;;;;;5.80;4.00;;;;;;;13.39;73.42;96551.44;2069250;28;20245;-65
2024/03/14 09:08:31;;;;;;;6.90;4.13;;;;;;;13.49;73.91;96550.91;2071058;28;20206;-65
2024/03/14 09:09:36;;;;;;;6.07;3.90;;;;;;;13.79;73.04;96550.88;2074378;28;20223;-65
2024/03/14 09:10:38;;;;;;;6.70;4.00;;;;;;;14.06;72.20;96539.66;2073012;28;20202;-65
2024/03/14 09:11:39;;;;;;;5.43;3.78;;;;;;;13.60;71.79;96545.00;2067518;28;21415;-65
2024/03/14 09:12:43;;;;;;;7.80;3.63;;;;;;;13.47;72.34;96548.38;2061377;28;20198;-65
2024/03/14 09:13:45;;;;;;;5.57;3.78;;;;;;;13.24;73.95;96554.88;2066060;28;20543;-61
2024/03/14 09:14:47;;;;;;;6.32;3.67;;;;;;;13.05;74.14;96537.59;2065939;28;20198;-62
2024/03/14 09:15:51;;;;;;;6.60;3.85;;;;;;;13.09;74.19;96547.88;2065215;28;20237;-61
2024/03/14 09:16:53;;;;;;;5.80;4.15;;;;;;;12.78;75.13;96542.56;2063459;28;20234;-61
2024/03/14 09:17:55;;;;;;;5.70;3.75;;;;;;;12.96;74.98;96545.94;2067100;28;20559;-61
2024/03/14 09:18:57;;;;;;;5.35;3.50;;;;;;;13.02;74.63;96553.47;2065835;28;20210;-62
2024/03/14 09:19:59;;;;;;;5.63;3.90;;;;;;;12.95;74.45;96554.75;2065951;28;20223;-61
2024/03/14 09:21:01;;;;;;;6.10;3.97;;;;;;;12.94;74.05;96547.81;2072834;28;20706;-60
2024/03/14 09:22:02;;;;;;;5.22;3.63;;;;;;;12.85;74.84;96553.56;2074398;28;20851;-65
2024/03/14 09:23:04;;;;;;;5.68;3.60;;;;;;;12.94;75.07;96545.19;2074479;28;20198;-65
2024/03/14 09:24:07;;;;;;;5.50;3.20;;;;;;;12.96;74.66;96542.50;2074491;28;20193;-65
2024/03/14 09:25:14;;;;;;;5.97;3.97;;;;;;;13.35;74.49;96543.78;2068202;28;20236;-65
2024/03/14 09:26:16;;;;;;;4.75;3.22;;;;;;;13.03;74.46;96539.44;2067990;28;20194;-65
2024/03/14 09:27:18;;;;;;;5.47;3.40;;;;;;;13.28;74.39;96530.19;2065417;28;20357;-60
2024/03/14 09:28:19;;;;;;;5.40;3.10;;;;;;;13.51;74.13;96544.63;2069713;28;20931;-64
2024/03/14 09:29:21;;;;;;;12.23;6.72;;;;;;;13.37;73.78;96540.19;2067026;28;20263;-69
2024/03/14 09:30:23;;;;;;;14.68;7.55;;;;;;;12.90;73.70;96531.41;2074400;28;20231;-68
2024/03/14 09:31:24;;;;;;;6.68;4.00;;;;;;;13.11;74.56;96543.41;2073275;28;20201;-68
2024/03/14 09:32:29;;;;;;;5.30;2.85;;;;;;;12.95;74.61;96543.41;2066631;28;20253;-66
2024/03/14 09:33:31;;;;;;;4.55;2.80;;;;;;;13.31;73.87;96537.88;2068284;28;20613;-66
2024/03/14 09:34:37;;;;;;;6.00;3.67;;;;;;;13.32;74.59;96541.31;2067923;28;20198;-66
2024/03/14 09:35:44;;;;;;;3.95;2.88;;;;;;;13.58;73.33;96531.16;2065613;28;20268;-66
2024/03/14 09:36:50;;;;;;;9.73;2.60;;;;;;;13.60;72.05;96539.75;2065319;28;20226;-66
2024/03/14 09:37:55;;;;;;;4.70;2.92;;;;;;;13.80;71.58;96534.19;2066170;28;20203;-66
2024/03/14 09:38:56;;;;;;;4.45;3.40;;;;;;;13.93;71.59;96534.31;2067840;28;20233;-66
2024/03/14 09:39:58;;;;;;;4.93;3.22;;;;;;;13.93;71.82;96528.19;2067553;28;20286;-66
2024/03/14 09:41:00;;;;;;;4.57;3.33;;;;;;;14.25;71.03;96530.69;2067924;28;20659;-66
2024/03/14 09:42:14;;;;;;;6.38;2.85;;;;;;;14.37;70.25;96529.91;2068121;28;20697;-66
2024/03/14 09:43:17;;;;;;;5.50;2.70;;;;;;;14.52;69.55;96536.00;2066152;28;20205;-66
2024/03/14 09:44:18;;;;;;;5.30;2.50;;;;;;;14.88;69.00;96526.78;2064196;28;20285;-66
2024/03/14 09:45:20;;;;;;;3.67;2.45;;;;;;;14.87;67.89;96527.72;2063564;28;20230;-62
2024/03/14 09:46:25;;;;;;;7.28;6.32;;;;;;;14.94;67.84;96533.41;2063214;28;20191;-62
2024/03/14 09:47:37;;;;;;;5.30;2.85;;;;;;;14.46;68.83;96536.38;2063672;28;20734;-62
2024/03/14 09:48:39;;;;;;;6.40;2.92;;;;;;;14.48;69.30;96530.06;2065271;28;20203;-63
2024/03/14 09:49:45;;;;;;;5.72;4.00;;;;;;;15.07;68.94;96518.53;2063464;28;20238;-63
2024/03/14 09:50:51;;;;;;;4.38;3.00;;;;;;;15.40;67.57;96530.44;2064981;28;20209;-63
2024/03/14 09:51:53;;;;;;;4.93;3.20;;;;;;;15.54;66.81;96528.66;2066725;28;20237;-62
2024/03/14 09:52:55;;;;;;;4.70;2.78;;;;;;;15.60;66.48;96521.19;2065782;28;20286;-62
2024/03/14 09:54:00;;;;;;;4.88;3.15;;;;;;;16.11;65.72;96527.47;2066294;28;20198;-63
2024/03/14 09:55:08;;;;;;;6.15;2.80;;;;;;;16.32;64.78;96512.00;2063473;28;20253;-63
2024/03/14 09:56:10;;;;;;;3.55;2.47;;;;;;;-145.49;100.00;55703.94;2067011;28;20301;-67
2024/03/14 09:57:12;;;;;;;5.20;2.90;;;;;;;17.43;62.03;96519.88;2072444;28;20233;-67
2024/03/14 09:58:14;;;;;;;4.45;2.60;;;;;;;17.10;61.72;96518.78;2065755;28;20206;-63
2024/03/14 09:59:16;;;;;;;3.85;2.00;;;;;;;16.66;61.65;96514.88;2063426;28;20205;-63
2024/03/14 10:00:21;;;;;;;3.55;1.70;;;;;;;16.40;63.37;96517.53;2066164;28;20928;-63
2024/03/14 10:01:24;;;;;;;10.13;2.22;;;;;;;16.26;63.95;96525.59;2065383;28;20198;-62
2024/03/14 10:02:26;;;;;;;2.65;1.60;;;;;;;15.36;65.74;96521.03;2066482;28;20188;-62
2024/03/14 10:03:27;;;;;;;4.38;2.45;;;;;;;15.76;64.38;96518.38;2064499;28;20195;-63
2024/03/14 10:04:29;;;;;;;6.55;2.03;;;;;;;15.81;64.19;96524.22;2070985;28;20251;-63
2024/03/14 10:05:34;;;;;;;3.70;2.10;;;;;;;15.66;65.83;96510.25;2076524;28;20240;-62
2024/03/14 10:06:40;;;;;;;3.63;2.10;;;;;;;15.92;65.35;96522.63;2065392;28;20194;-63
2024/03/14 10:07:42;;;;;;;3.42;2.22;;;;;;;16.70;64.34;96523.41;2065177;28;20199;-63
2024/03/14 10:08:50;;;;;;;3.63;2.58;;;;;;;16.83;61.47;96512.84;2063160;28;20237;-63
2024/03/14 10:09:53;;;;;;;2.25;1.40;;;;;;;16.72;61.40;96513.59;2063681;28;20198;-63
2024/03/14 10:10:55;;;;;;;4.70;1.85;;;;;;;17.11;61.90;96516.97;2063802;28;20209;-63
2024/03/14 10:12:01;;;;;;;2.67;1.70;;;;;;;17.51;60.95;96516.66;2062708;28;20234;-63
2024/03/14 10:13:04;;;;;;;6.50;2.00;;;;;;;17.09;61.29;96517.09;2067287;28;20198;-63
2024/03/14 10:14:16;;;;;;;2.92;1.80;;;;;;;17.11;61.26;96511.69;2072688;28;20291;-62
2024/03/14 10:15:20;;;;;;;4.00;1.80;;;;;;;16.31;61.96;96519.03;2066440;28;20213;-62
2024/03/14 10:16:22;;;;;;;4.57;1.90;;;;;;;17.22;60.79;96513.56;2066171;28;20240;-63
2024/03/14 10:17:25;;;;;;;4.30;2.60;;;;;;;17.01;59.99;96502.78;2061607;28;20355;-63
2024/03/14 10:18:27;;;;;;;5.15;2.67;;;;;;;16.87;60.64;96515.13;2066207;28;20230;-62
2024/03/14 10:19:35;;;;;;;4.18;2.45;;;;;;;17.19;60.34;96506.72;2063936;28;20203;-63
2024/03/14 10:20:37;;;;;;;3.20;2.00;;;;;;;17.71;59.48;96511.66;2064302;28;20245;-63
2024/03/14 10:21:39;;;;;;;2.88;1.90;;;;;;;17.68;59.11;96504.00;2071822;28;20198;-63
2024/03/14 10:22:41;;;;;;;4.68;1.95;;;;;;;17.26;59.57;96507.09;2065458;28;20194;-62
2024/03/14 10:23:44;;;;;;;4.55;2.35;;;;;;;16.98;60.21;96507.31;2066530;28;20212;-63
2024/03/14 10:24:46;;;;;;;6.18;2.42;;;;;;;17.06;59.99;96504.09;2064376;28;20293;-63
2024/03/14 10:25:53;;;;;;;2.58;1.60;;;;;;;17.23;59.60;96504.66;2066130;28;20241;-63
2024/03/14 10:26:55;;;;;;;1.98;1.30;;;;;;;17.35;59.67;96501.13;2068594;28;20277;-63
2024/03/14 10:27:57;;;;;;;3.60;1.90;;;;;;;18.44;58.30;96493.78;2072907;28;20531;-63
2024/03/14 10:29:14;;;;;;;3.22;1.92;;;;;;;18.80;56.74;96494.44;2066534;28;20197;-63
2024/03/14 10:30:18;;;;;;;3.83;2.00;;;;;;;19.09;56.71;96497.38;2067789;28;20206;-62
2024/03/14 10:31:21;;;;;;;4.07;1.58;;;;;;;19.13;56.35;96484.75;2065532;28;20297;-64
2024/03/14 10:32:23;;;;;;;5.50;1.73;;;;;;;18.91;57.45;96502.38;2064323;28;20225;-64
2024/03/14 10:33:27;;;;;;;3.10;1.70;;;;;;;19.62;55.32;96487.81;2065267;28;20199;-63
2024/03/14 10:34:29;;;;;;;3.33;2.13;;;;;;;-145.49;100.00;55703.94;2066212;28;20202;-64
2024/03/14 10:35:31;;;;;;;7.18;1.55;;;;;;;-145.49;100.00;55703.94;2066471;28;20663;-63
2024/03/14 10:36:39;;;;;;;2.80;1.67;;;;;;;-145.49;100.00;55703.94;2064178;28;20207;-64
2024/03/14 10:37:44;;;;;;;4.13;1.45;;;;;;;19.62;55.32;96487.81;2067035;28;20205;-64
2024/03/14 10:38:49;;;;;;;2.40;1.50;;;;;;;19.14;55.49;96481.16;2067719;28;20270;-63
2024/03/14 10:39:54;;;;;;;3.47;1.80;;;;;;;19.75;54.91;96480.47;2065443;28;20249;-63
2024/03/14 10:41:02;;;;;;;2.17;1.10;;;;;;;20.41;53.41;96483.78;2065962;28;20190;-63
2024/03/14 10:42:05;;;;;;;3.33;1.52;;;;;;;19.95;54.12;96471.84;2064086;28;20423;-63
2024/03/14 10:43:10;;;;;;;3.30;1.60;;;;;;;20.40;52.73;96482.09;2062506;28;20194;-63
2024/03/14 10:44:15;;;;;;;2.47;1.35;;;;;;;20.58;52.33;96481.47;2066214;28;20202;-63
2024/03/14 10:45:16;;;;;;;2.45;1.45;;;;;;;20.94;52.49;96479.19;2066364;28;20230;-63
2024/03/14 10:46:19;;;;;;;1.65;0.98;;;;;;;21.07;51.38;96481.63;2066069;28;20297;-66
2024/03/14 10:47:21;;;;;;;2.60;1.55;;;;;;;20.53;52.23;96480.06;2065270;28;20221;-66
2024/03/14 10:48:25;;;;;;;2.00;1.30;;;;;;;20.86;52.11;96467.47;2065509;28;20199;-66
2024/03/14 10:49:28;;;;;;;2.72;1.38;;;;;;;20.71;51.98;96477.63;2066789;28;20198;-66
2024/03/14 10:50:33;;;;;;;6.03;1.40;;;;;;;20.77;52.08;96483.38;2066513;28;20198;-66
2024/03/14 10:51:36;;;;;;;3.38;1.35;;;;;;;20.81;52.72;96480.31;2065414;28;20209;-66
2024/03/14 10:52:39;;;;;;;2.65;1.33;;;;;;;20.68;52.62;96477.88;2065450;28;20199;-66
2024/03/14 10:53:41;;;;;;;2.42;1.33;;;;;;;19.72;54.47;96474.63;2067184;28;20285;-67
2024/03/14 10:54:48;;;;;;;1.85;1.17;;;;;;;19.89;53.63;96474.03;2073887;28;20241;-66
2024/03/14 10:55:52;;;;;;;2.92;1.33;;;;;;;21.09;52.41;96477.00;2071603;28;20205;-67
2024/03/14 10:56:55;;;;;;;2.25;1.15;;;;;;;21.02;52.53;96474.88;2064217;28;20249;-62
2024/03/14 10:57:58;;;;;;;5.50;3.17;;;;;;;20.64;53.21;96476.47;2065302;28;20293;-61
2024/03/14 10:59:00;;;;;;;3.55;1.58;;;;;;;21.31;51.45;96474.06;2065620;28;20288;-61
2024/03/14 11:00:02;;;;;;;2.72;1.10;;;;;;;20.54;53.46;96468.50;2063988;28;20250;-62
2024/03/14 11:01:04;;;;;;;1.80;1.13;;;;;;;20.69;51.16;96476.06;2066899;28;20233;-61
2024/03/14 11:02:14;;;;;;;2.00;1.20;;;;;;;19.18;54.38;96476.44;2066014;28;20218;-61
2024/03/14 11:03:18;;;;;;;2.30;1.10;;;;;;;19.34;56.10;96466.28;2068831;28;20261;-63
2024/03/14 11:04:20;;;;;;;2.10;1.10;;;;;;;19.48;54.89;96469.59;2067560;28;20201;-63
2024/03/14 11:05:25;;;;;;;1.95;1.27;;;;;;;21.10;51.48;96465.41;2069000;28;20208;-63
2024/03/14 11:06:30;;;;;;;6.50;1.30;;;;;;;21.48;51.02;96475.22;2061456;28;20252;-63
2024/03/14 11:07:32;;;;;;;6.97;1.52;;;;;;;20.65;52.21;96459.56;2062549;28;20235;-63
2024/03/14 11:08:39;;;;;;;1.80;1.00;;;;;;;22.61;49.69;96464.72;2070995;28;20736;-64
2024/03/14 11:09:53;;;;;;;1.80;1.00;;;;;;;23.07;48.02;96453.22;2071338;28;20277;-64
2024/03/14 11:10:58;;;;;;;4.15;1.60;;;;;;;22.53;48.46;96463.78;2063780;28;20275;-64
2024/03/14 11:12:04;;;;;;;4.63;1.10;;;;;;;23.35;48.29;96463.81;2063339;28;20214;-64
2024/03/14 11:13:15;;;;;;;5.18;1.20;;;;;;;23.29;47.64;96460.78;2063311;28;20191;-64
2024/03/14 11:14:28;;;;;;;2.33;1.38;;;;;;;21.54;50.21;96468.47;2063817;28;20332;-64
2024/03/14 11:15:36;;;;;;;2.33;1.17;;;;;;;21.52;50.17;96459.78;2060339;28;20279;-64
2024/03/14 11:16:42;;;;;;;2.33;1.38;;;;;;;21.80;50.03;96466.09;2058174;28;20889;-64
2024/03/14 11:17:45;;;;;;;1.73;1.00;;;;;;;22.27;49.11;96461.75;2064304;28;20258;-64
2024/03/14 11:18:53;;;;;;;4.63;1.30;;;;;;;21.68;49.45;96453.94;2064162;28;20734;-64
2024/03/14 11:20:01;;;;;;;1.67;0.90;;;;;;;23.18;48.88;96457.53;2064539;28;20193;-64
2024/03/14 11:21:06;;;;;;;2.83;1.15;;;;;;;23.18;48.88;96457.53;2068884;28;20666;-65
2024/03/14 11:22:08;;;;;;;3.15;1.10;;;;;;;22.79;47.59;96454.09;2062903;28;20221;-65
2024/03/14 11:23:15;;;;;;;2.70;1.30;;;;;;;21.11;51.78;96459.94;2065445;28;20608;-64
2024/03/14 11:24:21;;;;;;;3.03;1.40;;;;;;;21.12;51.62;96455.50;2063328;28;20203;-64
2024/03/14 11:25:27;;;;;;;3.08;1.10;;;;;;;20.45;52.78;96449.91;2066740;28;20828;-64
2024/03/14 11:26:34;;;;;;;2.97;1.40;;;;;;;20.21;52.42;96445.75;2060613;28;20194;-64
2024/03/14 11:27:37;;;;;;;1.70;1.00;;;;;;;19.57;53.47;96448.44;2067164;28;20245;-64
2024/03/14 11:28:41;;;;;;;2.58;1.33;;;;;;;19.17;54.70;96437.72;2064059;28;20302;-65
2024/03/14 11:29:44;;;;;;;2.78;1.88;;;;;;;19.55;55.82;96447.75;2071987;28;20210;-64
2024/03/14 11:30:57;;;;;;;3.17;1.50;;;;;;;20.25;53.14;96446.31;2066012;28;20201;-64
2024/03/14 11:32:30;;;;;;;2.25;1.10;;;;;;;19.83;54.39;96449.91;2060670;28;20652;-64
2024/03/14 11:33:32;;;;;;;2.53;1.30;;;;;;;19.23;54.47;96439.84;2067026;28;20267;-64
2024/03/14 11:34:33;;;;;;;1.60;1.08;;;;;;;18.46;56.16;96441.59;2067000;28;20194;-64
2024/03/14 11:35:38;;;;;;;2.92;1.10;;;;;;;18.98;56.56;96447.19;2065667;28;20600;-69
2024/03/14 11:36:40;;;;;;;2.28;1.50;;;;;;;18.38;56.38;96436.94;2062515;28;20646;-69
2024/03/14 11:37:50;;;;;;;2.10;1.13;;;;;;;18.69;56.41;96438.91;2064135;28;20218;-70
2024/03/14 11:38:52;;;;;;;2.60;1.50;;;;;;;18.91;55.24;96440.72;2065938;28;20763;-69
2024/03/14 11:39:57;;;;;;;3.05;1.20;;;;;;;19.53;54.53;96431.16;2063020;28;20262;-69
2024/03/14 11:41:02;;;;;;;2.15;1.10;;;;;;;18.72;55.68;96442.16;2062424;28;20658;-69
2024/03/14 11:42:10;;;;;;;6.57;1.40;;;;;;;18.63;56.07;96442.06;2063737;28;20214;-69
2024/03/14 11:43:22;;;;;;;2.05;1.27;;;;;;;18.06;57.87;96440.31;2064443;28;20206;-69
2024/03/14 11:44:30;;;;;;;2.35;1.30;;;;;;;18.18;58.26;96435.03;2060373;28;20257;-69
2024/03/14 11:45:31;;;;;;;2.95;1.33;;;;;;;18.37;58.01;96437.91;2060651;28;20252;-68
2024/03/14 11:46:38;;;;;;;2.47;1.38;;;;;;;18.59;56.34;96426.44;2066094;28;20317;-68
2024/03/14 11:47:43;;;;;;;3.85;1.38;;;;;;;18.96;56.13;96421.78;2066605;28;20190;-68
2024/03/14 11:48:45;;;;;;;2.65;1.08;;;;;;;19.35;56.22;96420.31;2066561;28;20199;-68
2024/03/14 11:49:46;;;;;;;3.50;1.40;;;;;;;19.24;55.77;96428.31;2065551;28;20239;-68
2024/03/14 11:50:52;;;;;;;2.80;1.25;;;;;;;20.00;54.25;96425.44;2065754;28;20225;-68
2024/03/14 11:51:55;;;;;;;2.58;1.40;;;;;;;20.27;53.57;96417.88;2065155;28;20225;-68
2024/03/14 11:52:56;;;;;;;2.30;1.08;;;;;;;20.61;52.67;96420.19;2066191;28;20202;-68
2024/03/14 11:54:05;;;;;;;3.15;1.20;;;;;;;21.41;51.50;96430.72;2074671;28;20200;-68
2024/03/14 11:55:11;;;;;;;3.28;1.13;;;;;;;22.23;51.04;96418.66;2071168;28;20208;-65
2024/03/14 11:56:14;;;;;;;2.65;1.20;;;;;;;21.20;50.40;96419.31;2065406;28;20201;-66
2024/03/14 11:57:16;;;;;;;1.90;1.00;;;;;;;20.90;50.82;96416.78;2064217;28;20230;-66
2024/03/14 11:58:18;;;;;;;2.20;1.17;;;;;;;20.46;52.21;96417.94;2065329;28;20198;-65
2024/03/14 11:59:22;;;;;;;20.98;15.10;;;;;;;21.33;51.11;96419.03;2064305;28;20286;-65
2024/03/14 12:00:26;;;;;;;5.43;3.80;;;;;;;22.67;49.59;96413.53;2065560;28;20289;-65
2024/03/14 12:01:31;;;;;;;2.20;1.40;;;;;;;23.68;48.69;96405.47;2065768;28;20893;-65
2024/03/14 12:02:52;;;;;;;1.55;0.90;;;;;;;21.97;49.30;96407.88;2064970;28;20300;-65
2024/03/14 12:03:57;;;;;;;2.25;0.93;;;;;;;22.67;49.70;96407.41;2066779;28;20198;-65
2024/03/14 12:05:02;;;;;;;2.60;1.10;;;;;;;23.10;48.40;96411.16;2065697;28;20776;-65
2024/03/14 12:06:05;;;;;;;2.40;1.10;;;;;;;21.80;49.68;96409.44;2065241;28;20229;-65
2024/03/14 12:07:09;;;;;;;3.35;1.60;;;;;;;21.68;50.35;96406.94;2065157;28;20231;-66
2024/03/14 12:08:12;;;;;;;4.15;0.90;;;;;;;22.17;50.68;96405.97;2065276;28;20195;-65
2024/03/14 12:09:22;;;;;;;1.80;0.80;;;;;;;22.20;49.34;96405.66;2064924;28;20390;-65
2024/03/14 12:10:24;;;;;;;1.75;1.10;;;;;;;22.10;49.79;96404.88;2065383;28;20830;-65
2024/03/14 12:11:29;;;;;;;1.40;0.90;;;;;;;21.40;50.15;96403.34;2064227;28;20701;-65
2024/03/14 12:12:32;;;;;;;1.58;0.90;;;;;;;20.60;52.04;96402.63;2066598;28;20267;-65
2024/03/14 12:13:34;;;;;;;5.00;1.45;;;;;;;20.77;52.78;96391.34;2073350;28;20197;-65
2024/03/14 12:14:36;;;;;;;3.08;1.00;;;;;;;21.62;51.79;96396.94;2072428;28;20198;-65
2024/03/14 12:15:38;;;;;;;1.98;1.10;;;;;;;21.27;51.48;96393.03;2065113;28;20827;-65
2024/03/14 12:16:45;;;;;;;4.47;1.15;;;;;;;22.80;49.70;96391.91;2064976;28;20209;-66
2024/03/14 12:17:52;;;;;;;2.15;1.00;;;;;;;23.62;47.93;96388.28;2066474;28;20611;-66
2024/03/14 12:18:53;;;;;;;2.03;0.98;;;;;;;23.83;48.05;96398.56;2067702;28;20206;-66
2024/03/14 12:19:56;;;;;;;3.35;0.98;;;;;;;24.23;47.27;96398.97;2063184;28;20805;-65
2024/03/14 12:21:00;;;;;;;1.40;0.80;;;;;;;24.54;46.51;96395.75;2056416;28;20211;-65
2024/03/14 12:22:03;;;;;;;2.08;0.95;;;;;;;22.69;47.75;96388.63;2066248;28;20226;-65
2024/03/14 12:23:07;;;;;;;6.53;1.10;;;;;;;22.10;48.98;96394.25;2068246;28;20644;-65